sensor_id;sensor_type;location;lat;lon;timestamp;pressure;altitude;pressure_sealevel;temperature;humidity
78056;BME280;67666;55.862;49.094;2023-02-14T00:01:49;99772.38;;;20.43;17.88
78056;BME280;67666;55.862;49.094;2023-02-14T00:04:17;99781.91;;;20.46;17.96
78056;BME280;67666;55.862;49.094;2023-02-14T00:06:44;99772.34;;;20.45;18.08
78056;BME280;67666;55.862;49.094;2023-02-14T00:09:11;99765.38;;;20.45;18.00
78056;BME280;67666;55.862;49.094;2023-02-14T00:11:38;99773.28;;;20.42;17.89
78056;BME280;67666;55.862;49.094;2023-02-14T00:14:04;99761.97;;;20.42;18.03
78056;BME280;67666;55.862;49.094;2023-02-14T00:16:49;99758.56;;;20.39;17.85
78056;BME280;67666;55.862;49.094;2023-02-14T00:19:16;99760.19;;;20.44;17.92
78056;BME280;67666;55.862;49.094;2023-02-14T00:21:43;99765.53;;;20.39;18.05
78056;BME280;67666;55.862;49.094;2023-02-14T00:24:14;99772.38;;;20.43;17.79
78056;BME280;67666;55.862;49.094;2023-02-14T00:26:40;99774.19;;;20.39;17.86
78056;BME280;67666;55.862;49.094;2023-02-14T00:29:12;99763.91;;;20.33;17.82
78056;BME280;67666;55.862;49.094;2023-02-14T00:31:40;99758.03;;;20.24;17.81
78056;BME280;67666;55.862;49.094;2023-02-14T00:34:07;99772.63;;;20.32;17.83
78056;BME280;67666;55.862;49.094;2023-02-14T00:36:34;99768.34;;;20.30;17.84
78056;BME280;67666;55.862;49.094;2023-02-14T00:39:07;99767.34;;;20.35;17.60
78056;BME280;67666;55.862;49.094;2023-02-14T00:41:36;99762.84;;;20.42;17.83
78056;BME280;67666;55.862;49.094;2023-02-14T00:44:03;99767.19;;;20.42;17.58
78056;BME280;67666;55.862;49.094;2023-02-14T00:46:29;99769.03;;;20.38;17.50
78056;BME280;67666;55.862;49.094;2023-02-14T00:48:56;99774.28;;;20.36;17.63
78056;BME280;67666;55.862;49.094;2023-02-14T00:51:23;99771.53;;;20.41;17.44
78056;BME280;67666;55.862;49.094;2023-02-14T00:53:49;99760.38;;;20.36;17.34
78056;BME280;67666;55.862;49.094;2023-02-14T00:56:16;99766.56;;;20.32;17.56
78056;BME280;67666;55.862;49.094;2023-02-14T00:58:43;99765.91;;;20.22;18.04
78056;BME280;67666;55.862;49.094;2023-02-14T01:01:11;99765.06;;;20.22;18.38
78056;BME280;67666;55.862;49.094;2023-02-14T01:03:37;99771.09;;;20.24;18.73
78056;BME280;67666;55.862;49.094;2023-02-14T01:06:04;99761.50;;;20.24;18.46
78056;BME280;67666;55.862;49.094;2023-02-14T01:08:31;99758.94;;;20.23;18.72
78056;BME280;67666;55.862;49.094;2023-02-14T01:11:09;99759.91;;;20.19;18.49
78056;BME280;67666;55.862;49.094;2023-02-14T01:13:36;99760.66;;;20.24;18.83
78056;BME280;67666;55.862;49.094;2023-02-14T01:16:11;99759.75;;;20.25;18.79
78056;BME280;67666;55.862;49.094;2023-02-14T01:18:37;99758.13;;;20.21;19.38
78056;BME280;67666;55.862;49.094;2023-02-14T01:23:46;99759.94;;;20.17;18.97
78056;BME280;67666;55.862;49.094;2023-02-14T01:26:14;99761.66;;;20.18;18.99
78056;BME280;67666;55.862;49.094;2023-02-14T01:28:41;99765.09;;;20.19;19.08
78056;BME280;67666;55.862;49.094;2023-02-14T01:31:11;99760.69;;;20.22;19.04
78056;BME280;67666;55.862;49.094;2023-02-14T01:33:38;99762.50;;;20.20;19.21
78056;BME280;67666;55.862;49.094;2023-02-14T01:36:04;99763.34;;;20.19;18.83
78056;BME280;67666;55.862;49.094;2023-02-14T01:38:31;99773.69;;;20.24;19.20
78056;BME280;67666;55.862;49.094;2023-02-14T01:40:57;99768.50;;;20.22;19.18
78056;BME280;67666;55.862;49.094;2023-02-14T01:43:24;99766.81;;;20.21;19.21
78056;BME280;67666;55.862;49.094;2023-02-14T01:45:50;99762.44;;;20.22;19.16
78056;BME280;67666;55.862;49.094;2023-02-14T01:48:19;99767.66;;;20.22;19.37
78056;BME280;67666;55.862;49.094;2023-02-14T01:50:48;99758.13;;;20.21;19.33
78056;BME280;67666;55.862;49.094;2023-02-14T01:53:23;99755.56;;;20.18;19.37
78056;BME280;67666;55.862;49.094;2023-02-14T01:55:58;99767.72;;;20.20;19.47
78056;BME280;67666;55.862;49.094;2023-02-14T01:58:30;99765.06;;;20.22;19.20
78056;BME280;67666;55.862;49.094;2023-02-14T02:01:01;99762.53;;;20.17;19.31
78056;BME280;67666;55.862;49.094;2023-02-14T02:03:37;99766.00;;;20.18;19.32
78056;BME280;67666;55.862;49.094;2023-02-14T02:06:27;99767.66;;;20.22;19.31
78056;BME280;67666;55.862;49.094;2023-02-14T02:09:01;99766.84;;;20.20;19.24
78056;BME280;67666;55.862;49.094;2023-02-14T02:11:31;99765.06;;;20.22;19.45
78056;BME280;67666;55.862;49.094;2023-02-14T02:13:57;99776.28;;;20.24;19.37
78056;BME280;67666;55.862;49.094;2023-02-14T02:24:59;99764.19;;;20.21;19.52
78056;BME280;67666;55.862;49.094;2023-02-14T02:27:41;99759.78;;;20.23;19.51
78056;BME280;67666;55.862;49.094;2023-02-14T02:33:42;99753.81;;;20.18;19.69
78056;BME280;67666;55.862;49.094;2023-02-14T02:36:24;99761.59;;;20.21;19.58
78056;BME280;67666;55.862;49.094;2023-02-14T02:39:11;99757.19;;;20.23;19.67
78056;BME280;67666;55.862;49.094;2023-02-14T02:47:45;99758.00;;;20.27;19.87
78056;BME280;67666;55.862;49.094;2023-02-14T02:50:29;99753.69;;;20.24;19.83
78056;BME280;67666;55.862;49.094;2023-02-14T02:56:13;99756.16;;;20.30;19.72
78056;BME280;67666;55.862;49.094;2023-02-14T02:59:12;99759.75;;;20.26;19.79
78056;BME280;67666;55.862;49.094;2023-02-14T03:02:13;99762.34;;;20.25;20.12
78056;BME280;67666;55.862;49.094;2023-02-14T03:04:47;99760.50;;;20.30;20.13
78056;BME280;67666;55.862;49.094;2023-02-14T03:07:20;99757.94;;;20.28;20.05
78056;BME280;67666;55.862;49.094;2023-02-14T03:10:11;99759.66;;;20.29;20.17
78056;BME280;67666;55.862;49.094;2023-02-14T03:27:15;99761.38;;;20.30;20.41
78056;BME280;67666;55.862;49.094;2023-02-14T03:29:48;99764.06;;;20.27;20.52
78056;BME280;67666;55.862;49.094;2023-02-14T03:32:43;99760.50;;;20.30;20.44
78056;BME280;67666;55.862;49.094;2023-02-14T03:35:58;99766.56;;;20.32;20.34
78056;BME280;67666;55.862;49.094;2023-02-14T03:41:01;99757.91;;;20.30;20.47
78056;BME280;67666;55.862;49.094;2023-02-14T03:43:33;99750.13;;;20.28;20.36
78056;BME280;67666;55.862;49.094;2023-02-14T03:46:17;99756.09;;;20.33;20.10
78056;BME280;67666;55.862;49.094;2023-02-14T03:48:46;99757.84;;;20.33;20.34
78056;BME280;67666;55.862;49.094;2023-02-14T03:51:14;99758.56;;;20.39;20.23
78056;BME280;67666;55.862;49.094;2023-02-14T03:53:45;99755.09;;;20.39;20.48
78056;BME280;67666;55.862;49.094;2023-02-14T03:58:55;99752.53;;;20.36;20.22
78056;BME280;67666;55.862;49.094;2023-02-14T04:01:35;99751.72;;;20.34;20.13
78056;BME280;67666;55.862;49.094;2023-02-14T04:04:05;99763.88;;;20.35;20.35
78056;BME280;67666;55.862;49.094;2023-02-14T04:06:32;99757.69;;;20.39;20.11
78056;BME280;67666;55.862;49.094;2023-02-14T04:08:59;99759.50;;;20.37;20.35
78056;BME280;67666;55.862;49.094;2023-02-14T04:11:26;99752.63;;;20.33;20.09
78056;BME280;67666;55.862;49.094;2023-02-14T04:13:52;99762.97;;;20.36;20.19
78056;BME280;67666;55.862;49.094;2023-02-14T04:16:18;99763.88;;;20.35;20.14
78056;BME280;67666;55.862;49.094;2023-02-14T04:18:44;99761.16;;;20.39;20.09
78056;BME280;67666;55.862;49.094;2023-02-14T04:21:29;99752.47;;;20.39;20.27
78056;BME280;67666;55.862;49.094;2023-02-14T04:23:55;99773.19;;;20.47;20.37
78056;BME280;67666;55.862;49.094;2023-02-14T04:26:22;99767.97;;;20.45;20.28
78056;BME280;67666;55.862;49.094;2023-02-14T04:28:48;99749.03;;;20.38;20.38
78056;BME280;67666;55.862;49.094;2023-02-14T04:31:14;99775.78;;;20.47;20.64
78056;BME280;67666;55.862;49.094;2023-02-14T04:33:42;99756.75;;;20.42;20.35
78056;BME280;67666;55.862;49.094;2023-02-14T04:36:10;99777.44;;;20.51;20.44
78056;BME280;67666;55.862;49.094;2023-02-14T04:38:37;99771.38;;;20.50;20.52
78056;BME280;67666;55.862;49.094;2023-02-14T04:41:03;99779.91;;;20.57;20.39
78056;BME280;67666;55.862;49.094;2023-02-14T04:43:29;99765.94;;;20.59;20.44
78056;BME280;67666;55.862;49.094;2023-02-14T04:45:56;99785.03;;;20.61;20.76
78056;BME280;67666;55.862;49.094;2023-02-14T04:48:22;99773.63;;;20.66;20.36
78056;BME280;67666;55.862;49.094;2023-02-14T04:50:53;99776.09;;;20.72;20.34
78056;BME280;67666;55.862;49.094;2023-02-14T04:53:20;99784.72;;;20.74;20.39
78056;BME280;67666;55.862;49.094;2023-02-14T04:55:49;99775.94;;;20.78;20.20
78056;BME280;67666;55.862;49.094;2023-02-14T04:58:16;99788.66;;;20.90;20.03
78056;BME280;67666;55.862;49.094;2023-02-14T05:00:42;99785.97;;;20.93;20.02
78056;BME280;67666;55.862;49.094;2023-02-14T05:03:08;99784.19;;;20.95;19.96
78056;BME280;67666;55.862;49.094;2023-02-14T05:05:35;99784.94;;;21.00;20.03
78056;BME280;67666;55.862;49.094;2023-02-14T05:08:01;99787.59;;;20.97;19.96
78056;BME280;67666;55.862;49.094;2023-02-14T05:10:27;99782.31;;;21.00;20.04
78056;BME280;67666;55.862;49.094;2023-02-14T05:12:54;99778.66;;;21.07;19.97
78056;BME280;67666;55.862;49.094;2023-02-14T05:15:20;99788.28;;;21.05;20.01
78056;BME280;67666;55.862;49.094;2023-02-14T05:17:47;99790.84;;;21.07;19.92
78056;BME280;67666;55.862;49.094;2023-02-14T05:20:13;99784.69;;;21.09;19.91
78056;BME280;67666;55.862;49.094;2023-02-14T05:22:39;99787.28;;;21.09;19.94
78056;BME280;67666;55.862;49.094;2023-02-14T05:25:06;99787.34;;;21.08;19.95
78056;BME280;67666;55.862;49.094;2023-02-14T05:27:32;99789.84;;;21.12;19.72
78056;BME280;67666;55.862;49.094;2023-02-14T05:29:58;99794.16;;;21.13;19.87
78056;BME280;67666;55.862;49.094;2023-02-14T05:32:25;99797.56;;;21.15;19.83
78056;BME280;67666;55.862;49.094;2023-02-14T05:34:51;99806.16;;;21.21;19.98
78056;BME280;67666;55.862;49.094;2023-02-14T05:37:17;99803.53;;;21.21;19.70
78056;BME280;67666;55.862;49.094;2023-02-14T05:39:43;99805.22;;;21.23;19.66
78056;BME280;67666;55.862;49.094;2023-02-14T05:42:10;99799.03;;;21.27;19.69
78056;BME280;67666;55.862;49.094;2023-02-14T05:44:36;99800.75;;;21.28;19.83
78056;BME280;67666;55.862;49.094;2023-02-14T05:47:02;99800.72;;;21.30;19.52
78056;BME280;67666;55.862;49.094;2023-02-14T05:49:29;99811.06;;;21.34;19.66
78056;BME280;67666;55.862;49.094;2023-02-14T05:51:55;99798.09;;;21.30;19.71
78056;BME280;67666;55.862;49.094;2023-02-14T05:54:21;99818.03;;;21.34;19.67
78056;BME280;67666;55.862;49.094;2023-02-14T05:56:48;99812.66;;;21.40;19.66
78056;BME280;67666;55.862;49.094;2023-02-14T05:59:14;99813.50;;;21.40;19.53
78056;BME280;67666;55.862;49.094;2023-02-14T06:01:40;99815.94;;;21.47;19.44
78056;BME280;67666;55.862;49.094;2023-02-14T06:04:07;99801.28;;;21.41;19.66
78056;BME280;67666;55.862;49.094;2023-02-14T06:06:33;99793.25;;;21.49;20.78
78056;BME280;67666;55.862;49.094;2023-02-14T06:08:59;99812.03;;;20.59;19.84
78056;BME280;67666;55.862;49.094;2023-02-14T06:11:26;99816.50;;;18.11;20.58
78056;BME280;67666;55.862;49.094;2023-02-14T06:13:52;99822.75;;;17.15;21.43
78056;BME280;67666;55.862;49.094;2023-02-14T06:16:18;99812.38;;;17.95;22.07
78056;BME280;67666;55.862;49.094;2023-02-14T06:18:44;99819.88;;;19.30;21.10
78056;BME280;67666;55.862;49.094;2023-02-14T06:21:11;99810.59;;;20.05;20.00
78056;BME280;67666;55.862;49.094;2023-02-14T06:48:20;99829.47;;;17.34;21.44
78056;BME280;67666;55.862;49.094;2023-02-14T06:50:46;99825.16;;;17.33;21.33
78056;BME280;67666;55.862;49.094;2023-02-14T06:53:13;99832.56;;;17.68;19.87
78056;BME280;67666;55.862;49.094;2023-02-14T06:55:39;99827.66;;;17.44;20.90
78056;BME280;67666;55.862;49.094;2023-02-14T06:58:05;99830.69;;;19.08;20.69
78056;BME280;67666;55.862;49.094;2023-02-14T07:00:31;99829.53;;;20.13;20.44
78056;BME280;67666;55.862;49.094;2023-02-14T07:02:58;99830.78;;;20.75;20.37
78056;BME280;67666;55.862;49.094;2023-02-14T07:05:24;99835.06;;;21.13;19.83
78056;BME280;67666;55.862;49.094;2023-02-14T07:07:50;99836.72;;;21.51;19.88
78056;BME280;67666;55.862;49.094;2023-02-14T07:10:17;99835.25;;;21.72;19.40
78056;BME280;67666;55.862;49.094;2023-02-14T07:12:43;99838.97;;;21.96;19.45
78056;BME280;67666;55.862;49.094;2023-02-14T07:15:11;99843.56;;;22.19;19.25
78056;BME280;67666;55.862;49.094;2023-02-14T07:17:38;99839.72;;;22.31;18.78
78056;BME280;67666;55.862;49.094;2023-02-14T07:20:06;99823.19;;;22.29;18.38
78056;BME280;67666;55.862;49.094;2023-02-14T07:22:34;99838.31;;;22.19;17.88
78056;BME280;67666;55.862;49.094;2023-02-14T07:25:00;99837.53;;;22.15;18.41
78056;BME280;67666;55.862;49.094;2023-02-14T07:27:27;99842.84;;;22.14;18.48
78056;BME280;67666;55.862;49.094;2023-02-14T07:30:07;99841.28;;;22.05;18.40
78056;BME280;67666;55.862;49.094;2023-02-14T07:32:33;99846.69;;;21.99;17.92
78056;BME280;67666;55.862;49.094;2023-02-14T07:35:00;99847.44;;;22.04;18.37
78056;BME280;67666;55.862;49.094;2023-02-14T07:37:26;99855.22;;;22.06;17.82
78056;BME280;67666;55.862;49.094;2023-02-14T07:39:52;99849.66;;;22.19;18.02
78056;BME280;67666;55.862;49.094;2023-02-14T07:42:19;99841.31;;;22.35;17.77
78056;BME280;67666;55.862;49.094;2023-02-14T07:44:45;99853.28;;;22.43;17.99
78056;BME280;67666;55.862;49.094;2023-02-14T07:47:11;99854.00;;;22.48;17.98
78056;BME280;67666;55.862;49.094;2023-02-14T07:49:38;99850.41;;;22.51;17.85
78056;BME280;67666;55.862;49.094;2023-02-14T07:52:04;99862.63;;;22.52;17.86
78056;BME280;67666;55.862;49.094;2023-02-14T07:54:30;99860.84;;;22.53;17.73
78056;BME280;67666;55.862;49.094;2023-02-14T07:56:57;99868.19;;;22.41;17.69
78056;BME280;67666;55.862;49.094;2023-02-14T07:59:24;99868.66;;;22.54;17.70
78056;BME280;67666;55.862;49.094;2023-02-14T08:01:50;99870.50;;;22.51;17.86
78056;BME280;67666;55.862;49.094;2023-02-14T08:06:42;99862.78;;;22.74;17.60
78056;BME280;67666;55.862;49.094;2023-02-14T08:09:09;99866.09;;;22.81;17.47
78056;BME280;67666;55.862;49.094;2023-02-14T08:11:36;99874.69;;;22.84;17.50
78056;BME280;67666;55.862;49.094;2023-02-14T08:14:22;99875.50;;;22.86;17.62
78056;BME280;67666;55.862;49.094;2023-02-14T08:16:48;99873.97;;;22.79;17.53
78056;BME280;67666;55.862;49.094;2023-02-14T08:19:14;99871.31;;;22.81;17.33
78056;BME280;67666;55.862;49.094;2023-02-14T08:21:41;99875.53;;;22.85;17.54
78056;BME280;67666;55.862;49.094;2023-02-14T08:24:07;99876.38;;;22.85;17.72
78056;BME280;67666;55.862;49.094;2023-02-14T08:26:39;99875.16;;;22.97;17.87
78056;BME280;67666;55.862;49.094;2023-02-14T08:29:06;99875.59;;;23.11;17.38
78056;BME280;67666;55.862;49.094;2023-02-14T08:31:32;99876.69;;;23.04;17.56
78056;BME280;67666;55.862;49.094;2023-02-14T08:33:58;99863.81;;;22.98;17.39
78056;BME280;67666;55.862;49.094;2023-02-14T08:36:25;99879.13;;;23.10;17.43
78056;BME280;67666;55.862;49.094;2023-02-14T08:38:51;99887.63;;;23.17;17.28
78056;BME280;67666;55.862;49.094;2023-02-14T08:41:17;99879.63;;;23.21;17.48
78056;BME280;67666;55.862;49.094;2023-02-14T08:43:44;99878.50;;;23.28;17.25
78056;BME280;67666;55.862;49.094;2023-02-14T08:46:11;99876.72;;;23.29;17.44
78056;BME280;67666;55.862;49.094;2023-02-14T08:48:37;99860.38;;;23.22;17.43
78056;BME280;67666;55.862;49.094;2023-02-14T08:51:08;99878.44;;;23.30;16.87
78056;BME280;67666;55.862;49.094;2023-02-14T08:53:35;99882.72;;;23.33;16.87
78056;BME280;67666;55.862;49.094;2023-02-14T08:56:06;99882.25;;;23.21;16.73
78056;BME280;67666;55.862;49.094;2023-02-14T08:58:33;99877.00;;;23.21;16.32
78056;BME280;67666;55.862;49.094;2023-02-14T09:01:11;99876.94;;;23.23;16.52
78056;BME280;67666;55.862;49.094;2023-02-14T09:03:38;99886.63;;;23.21;16.39
78056;BME280;67666;55.862;49.094;2023-02-14T09:06:06;99873.63;;;23.18;16.64
78056;BME280;67666;55.862;49.094;2023-02-14T09:08:33;99882.38;;;23.17;16.85
78056;BME280;67666;55.862;49.094;2023-02-14T09:11:15;99880.88;;;23.10;16.96
78056;BME280;67666;55.862;49.094;2023-02-14T09:13:44;99875.66;;;23.08;17.17
78056;BME280;67666;55.862;49.094;2023-02-14T09:16:12;99879.19;;;23.07;17.31
78056;BME280;67666;55.862;49.094;2023-02-14T09:18:39;99872.53;;;22.97;17.02
78056;BME280;67666;55.862;49.094;2023-02-14T09:21:07;99862.56;;;22.82;17.48
78056;BME280;67666;55.862;49.094;2023-02-14T09:23:35;99875.34;;;22.92;17.29
78056;BME280;67666;55.862;49.094;2023-02-14T09:26:02;99877.69;;;23.00;17.34
78056;BME280;67666;55.862;49.094;2023-02-14T09:28:30;99873.09;;;23.07;17.05
78056;BME280;67666;55.862;49.094;2023-02-14T09:30:57;99875.59;;;23.11;17.06
78056;BME280;67666;55.862;49.094;2023-02-14T09:33:27;99877.69;;;23.00;17.41
78056;BME280;67666;55.862;49.094;2023-02-14T09:35:56;99876.34;;;22.88;16.88
78056;BME280;67666;55.862;49.094;2023-02-14T09:38:41;99887.16;;;22.76;17.25
78056;BME280;67666;55.862;49.094;2023-02-14T09:41:09;99874.78;;;22.53;16.83
78056;BME280;67666;55.862;49.094;2023-02-14T09:43:47;99882.72;;;22.50;16.60
78056;BME280;67666;55.862;49.094;2023-02-14T09:46:17;99882.19;;;22.39;16.93
78056;BME280;67666;55.862;49.094;2023-02-14T09:48:46;99890.94;;;22.38;17.03
78056;BME280;67666;55.862;49.094;2023-02-14T09:51:17;99891.66;;;22.43;17.03
78056;BME280;67666;55.862;49.094;2023-02-14T09:54:13;99895.28;;;22.39;16.93
78056;BME280;67666;55.862;49.094;2023-02-14T09:56:58;99890.88;;;22.39;16.72
78056;BME280;67666;55.862;49.094;2023-02-14T09:59:29;99886.88;;;22.28;16.89
78056;BME280;67666;55.862;49.094;2023-02-14T10:07:54;99892.47;;;22.15;17.70
78056;BME280;67666;55.862;49.094;2023-02-14T10:10:41;99895.00;;;22.18;18.00
78056;BME280;67666;55.862;49.094;2023-02-14T10:15:45;99888.28;;;22.10;17.89
78056;BME280;67666;55.862;49.094;2023-02-14T10:18:37;99901.03;;;22.20;17.36
78056;BME280;67666;55.862;49.094;2023-02-14T10:21:06;99892.59;;;22.11;18.14
78056;BME280;67666;55.862;49.094;2023-02-14T10:23:42;99901.28;;;22.11;17.84
78056;BME280;67666;55.862;49.094;2023-02-14T10:26:15;99896.22;;;22.05;18.00
78056;BME280;67666;55.862;49.094;2023-02-14T10:28:48;99899.47;;;22.15;18.05
78056;BME280;67666;55.862;49.094;2023-02-14T10:33:53;99901.88;;;21.90;17.84
78056;BME280;67666;55.862;49.094;2023-02-14T10:42:17;99904.06;;;22.05;17.66
78056;BME280;67666;55.862;49.094;2023-02-14T10:50:27;99906.34;;;22.19;17.26
78056;BME280;67666;55.862;49.094;2023-02-14T10:55:59;99906.91;;;22.29;17.28
78056;BME280;67666;55.862;49.094;2023-02-14T10:58:32;99904.09;;;22.35;16.88
78056;BME280;67666;55.862;49.094;2023-02-14T11:01:07;99909.06;;;22.44;16.81
78056;BME280;67666;55.862;49.094;2023-02-14T11:03:37;99920.50;;;22.41;16.89
78056;BME280;67666;55.862;49.094;2023-02-14T11:06:04;99917.66;;;22.49;17.05
78056;BME280;67666;55.862;49.094;2023-02-14T11:08:34;99909.06;;;22.44;16.85
78056;BME280;67666;55.862;49.094;2023-02-14T11:13:35;99922.16;;;22.44;16.90
78056;BME280;67666;55.862;49.094;2023-02-14T11:16:11;99919.50;;;22.45;16.86
78056;BME280;67666;55.862;49.094;2023-02-14T11:18:39;99926.31;;;22.51;17.01
78056;BME280;67666;55.862;49.094;2023-02-14T11:21:11;99930.44;;;22.29;16.91
78056;BME280;67666;55.862;49.094;2023-02-14T11:23:43;99929.22;;;22.42;16.91
78056;BME280;67666;55.862;49.094;2023-02-14T11:26:16;99922.09;;;22.45;16.78
78056;BME280;67666;55.862;49.094;2023-02-14T11:28:57;99931.09;;;22.37;16.64
78056;BME280;67666;55.862;49.094;2023-02-14T11:31:32;99926.41;;;22.17;16.73
78056;BME280;67666;55.862;49.094;2023-02-14T11:34:01;99928.22;;;22.15;16.41
78056;BME280;67666;55.862;49.094;2023-02-14T11:36:29;99934.41;;;22.12;16.84
78056;BME280;67666;55.862;49.094;2023-02-14T11:39:09;99936.97;;;22.14;16.79
78056;BME280;67666;55.862;49.094;2023-02-14T11:41:48;99927.38;;;22.14;16.61
78056;BME280;67666;55.862;49.094;2023-02-14T11:44:19;99939.69;;;22.09;16.86
78056;BME280;67666;55.862;49.094;2023-02-14T11:46:50;99937.91;;;22.11;17.09
78056;BME280;67666;55.862;49.094;2023-02-14T11:49:37;99940.28;;;22.20;16.75
78056;BME280;67666;55.862;49.094;2023-02-14T11:52:09;99944.13;;;22.07;16.81
78056;BME280;67666;55.862;49.094;2023-02-14T11:54:39;99937.47;;;21.94;16.47
78056;BME280;67666;55.862;49.094;2023-02-14T11:59:47;99946.81;;;22.04;16.67
78056;BME280;67666;55.862;49.094;2023-02-14T12:02:34;99944.59;;;21.89;16.56
78056;BME280;67666;55.862;49.094;2023-02-14T12:05:13;99941.22;;;21.85;16.78
78056;BME280;67666;55.862;49.094;2023-02-14T12:07:43;99939.94;;;22.00;16.55
78056;BME280;67666;55.862;49.094;2023-02-14T12:13:00;99948.50;;;22.07;17.70
78056;BME280;67666;55.862;49.094;2023-02-14T12:26:40;99948.00;;;21.92;17.25
78056;BME280;67666;55.862;49.094;2023-02-14T12:31:42;99942.84;;;21.89;17.23
78056;BME280;67666;55.862;49.094;2023-02-14T12:34:11;99951.41;;;21.94;17.08
78056;BME280;67666;55.862;49.094;2023-02-14T12:37:03;99945.34;;;21.94;17.16
78056;BME280;67666;55.862;49.094;2023-02-14T12:40:00;99958.44;;;21.92;17.26
78056;BME280;67666;55.862;49.094;2023-02-14T12:48:18;99960.78;;;22.03;17.14
78056;BME280;67666;55.862;49.094;2023-02-14T12:51:01;99959.47;;;21.87;17.02
78056;BME280;67666;55.862;49.094;2023-02-14T12:53:41;99957.06;;;21.79;17.20
78056;BME280;67666;55.862;49.094;2023-02-14T12:59:07;99960.84;;;22.00;16.94
78056;BME280;67666;55.862;49.094;2023-02-14T13:06:54;99970.56;;;21.96;16.90
78056;BME280;67666;55.862;49.094;2023-02-14T13:17:48;99964.69;;;21.87;17.21
78056;BME280;67666;55.862;49.094;2023-02-14T13:23:12;99967.44;;;21.82;17.12
78056;BME280;67666;55.862;49.094;2023-02-14T13:25:44;99966.50;;;21.85;17.20
78056;BME280;67666;55.862;49.094;2023-02-14T13:28:15;99965.78;;;21.80;17.16
78056;BME280;67666;55.862;49.094;2023-02-14T13:30:42;99972.72;;;21.81;16.36
78056;BME280;67666;55.862;49.094;2023-02-14T13:36:00;99969.09;;;21.52;15.88
78056;BME280;67666;55.862;49.094;2023-02-14T13:38:28;99973.41;;;21.53;15.97
78056;BME280;67666;55.862;49.094;2023-02-14T13:40:57;99971.59;;;21.55;16.17
78056;BME280;67666;55.862;49.094;2023-02-14T13:43:44;99977.56;;;21.60;16.32
78056;BME280;67666;55.862;49.094;2023-02-14T13:46:13;99969.88;;;21.56;16.48
78056;BME280;67666;55.862;49.094;2023-02-14T13:48:41;99968.38;;;21.46;16.27
78056;BME280;67666;55.862;49.094;2023-02-14T13:51:09;99968.28;;;21.50;16.61
78056;BME280;67666;55.862;49.094;2023-02-14T13:53:41;99974.16;;;21.58;16.53
78056;BME280;67666;55.862;49.094;2023-02-14T13:59:04;99974.16;;;21.58;16.50
78056;BME280;67666;55.862;49.094;2023-02-14T14:01:39;99977.97;;;21.45;16.65
78056;BME280;67666;55.862;49.094;2023-02-14T14:17:38;99998.13;;;21.38;16.87
78056;BME280;67666;55.862;49.094;2023-02-14T14:22:48;99998.88;;;21.45;17.10
78056;BME280;67666;55.862;49.094;2023-02-14T14:25:37;100010.09;;;21.49;17.00
78056;BME280;67666;55.862;49.094;2023-02-14T14:28:25;100009.28;;;21.47;17.08
78056;BME280;67666;55.862;49.094;2023-02-14T14:30:52;100013.69;;;21.45;16.97
78056;BME280;67666;55.862;49.094;2023-02-14T14:33:32;100010.00;;;21.53;16.81
78056;BME280;67666;55.862;49.094;2023-02-14T14:36:04;100014.31;;;21.54;17.18
78056;BME280;67666;55.862;49.094;2023-02-14T14:38:33;100016.03;;;21.55;17.11
78056;BME280;67666;55.862;49.094;2023-02-14T14:41:00;100016.97;;;21.53;17.02
78056;BME280;67666;55.862;49.094;2023-02-14T14:43:32;100029.97;;;21.56;17.11
78056;BME280;67666;55.862;49.094;2023-02-14T14:46:00;100018.78;;;21.49;17.05
78056;BME280;67666;55.862;49.094;2023-02-14T14:48:51;100024.75;;;21.54;17.12
78056;BME280;67666;55.862;49.094;2023-02-14T14:51:33;100025.66;;;21.53;17.22
78056;BME280;67666;55.862;49.094;2023-02-14T14:54:13;100022.16;;;21.54;17.19
78056;BME280;67666;55.862;49.094;2023-02-14T14:57:00;100024.75;;;21.56;17.11
78056;BME280;67666;55.862;49.094;2023-02-14T14:59:33;100026.56;;;21.52;17.51
78056;BME280;67666;55.862;49.094;2023-02-14T15:02:20;100025.66;;;21.53;17.27
78056;BME280;67666;55.862;49.094;2023-02-14T15:04:46;100028.28;;;21.53;17.33
78056;BME280;67666;55.862;49.094;2023-02-14T15:07:33;100030.38;;;21.39;17.45
78056;BME280;67666;55.862;49.094;2023-02-14T15:10:00;100034.41;;;21.52;17.33
78056;BME280;67666;55.862;49.094;2023-02-14T15:12:26;100032.00;;;21.43;17.39
78056;BME280;67666;55.862;49.094;2023-02-14T15:15:15;100032.75;;;21.48;17.32
78056;BME280;67666;55.862;49.094;2023-02-14T15:17:42;100044.25;;;21.41;17.58
78056;BME280;67666;55.862;49.094;2023-02-14T15:20:16;100043.31;;;21.43;18.13
78056;BME280;67666;55.862;49.094;2023-02-14T15:22:46;100044.91;;;21.49;18.07
78056;BME280;67666;55.862;49.094;2023-02-14T15:25:19;100041.59;;;21.42;17.81
78056;BME280;67666;55.862;49.094;2023-02-14T15:27:46;100040.88;;;21.36;17.88
78056;BME280;67666;55.862;49.094;2023-02-14T15:32:49;100051.28;;;21.39;17.87
78056;BME280;67666;55.862;49.094;2023-02-14T15:35:20;100051.94;;;21.47;17.75
78056;BME280;67666;55.862;49.094;2023-02-14T15:37:49;100059.06;;;21.40;17.76
78056;BME280;67666;55.862;49.094;2023-02-14T15:40:22;100050.22;;;21.46;17.73
78056;BME280;67666;55.862;49.094;2023-02-14T15:42:49;100054.34;;;21.56;17.64
78056;BME280;67666;55.862;49.094;2023-02-14T15:50:22;100054.34;;;21.56;17.38
78056;BME280;67666;55.862;49.094;2023-02-14T15:52:58;100069.22;;;21.53;17.68
78056;BME280;67666;55.862;49.094;2023-02-14T15:55:29;100066.88;;;21.42;17.54
78056;BME280;67666;55.862;49.094;2023-02-14T16:00:45;100067.63;;;21.47;17.51
78056;BME280;67666;55.862;49.094;2023-02-14T16:03:24;100058.16;;;21.41;17.67